createdAt,value
2022-11-17T00:01:45.022Z,98146.25
2022-11-17T00:04:14.854Z,98145.03
2022-11-17T00:06:43.838Z,98148.91
2022-11-17T00:09:17.531Z,98153.47
2022-11-17T00:11:59.799Z,98145.34
2022-11-17T00:14:33.908Z,98144.75
2022-11-17T00:17:03.481Z,98142.47
2022-11-17T00:19:50.693Z,98156.03
2022-11-17T00:22:19.192Z,98152.63
2022-11-17T00:24:49.034Z,98159.34
2022-11-17T00:27:17.816Z,98155.84
2022-11-17T00:29:46.055Z,98161.72
2022-11-17T00:32:32.476Z,98164.44
2022-11-17T00:35:02.616Z,98160.09
2022-11-17T00:37:34.333Z,98158.44
2022-11-17T00:40:02.969Z,98165.47
2022-11-17T00:42:31.215Z,98163.91
2022-11-17T00:44:59.388Z,98162.50
2022-11-17T00:47:27.933Z,98159.41
2022-11-17T00:49:56.136Z,98157.16
2022-11-17T00:52:25.998Z,98169.31
2022-11-17T00:54:54.283Z,98175.28
2022-11-17T00:57:22.469Z,98176.13
2022-11-17T00:59:50.658Z,98173.31
2022-11-17T01:02:18.904Z,98179.69
2022-11-17T01:04:47.402Z,98183.72
2022-11-17T01:07:15.654Z,98191.31
2022-11-17T01:09:45.398Z,98186.72
2022-11-17T01:12:13.979Z,98188.25
2022-11-17T01:14:42.196Z,98187.78
2022-11-17T01:17:10.726Z,98185.94
2022-11-17T01:19:38.923Z,98185.81
2022-11-17T01:22:07.099Z,98180.75
2022-11-17T01:24:35.305Z,98180.38
2022-11-17T01:27:05.177Z,98185.13
2022-11-17T01:29:33.573Z,98183.25
2022-11-17T01:32:01.759Z,98182.31
2022-11-17T01:34:30.001Z,98177.94
2022-11-17T01:37:15.590Z,98174.63
2022-11-17T01:39:44.190Z,98171.66
2022-11-17T01:42:16.724Z,98171.06
2022-11-17T01:44:59.867Z,98179.22
2022-11-17T01:47:44.359Z,98172.50
2022-11-17T01:50:22.480Z,98163.78
2022-11-17T01:52:52.593Z,98173.81
2022-11-17T01:55:23.416Z,98183.00
2022-11-17T01:57:57.905Z,98189.41
2022-11-17T02:00:28.118Z,98186.34
2022-11-17T02:02:57.809Z,98183.50
2022-11-17T02:05:36.874Z,98195.66
2022-11-17T02:08:07.969Z,98198.47
2022-11-17T02:10:38.442Z,98206.16
2022-11-17T02:13:09.137Z,98202.72
2022-11-17T02:15:37.981Z,98214.16
2022-11-17T02:18:06.940Z,98200.84
2022-11-17T02:20:44.800Z,98202.63
2022-11-17T02:23:36.684Z,98201.91
2022-11-17T02:26:47.830Z,98210.75
2022-11-17T02:29:23.549Z,98219.47
2022-11-17T02:31:58.274Z,98214.88
2022-11-17T02:34:32.622Z,98219.34
2022-11-17T02:37:08.956Z,98221.00
2022-11-17T02:39:42.560Z,98221.72
2022-11-17T02:42:15.516Z,98216.16
2022-11-17T02:44:49.977Z,98208.16
2022-11-17T02:47:23.669Z,98208.16
2022-11-17T02:49:57.579Z,98203.91
2022-11-17T02:52:27.594Z,98201.19
2022-11-17T02:55:00.922Z,98204.50
2022-11-17T02:57:30.318Z,98196.13
2022-11-17T03:00:02.726Z,98192.44
2022-11-17T03:02:47.231Z,98189.53
2022-11-17T03:05:20.956Z,98181.63
2022-11-17T03:08:03.096Z,98184.47
2022-11-17T03:10:46.267Z,98180.00
2022-11-17T03:13:20.100Z,98173.59
2022-11-17T03:15:55.714Z,98185.19
2022-11-17T03:18:30.896Z,98178.91
2022-11-17T03:21:11.649Z,98169.13
2022-11-17T03:23:47.090Z,98176.69
2022-11-17T03:26:18.310Z,98190.84
2022-11-17T03:28:48.202Z,98201.81
2022-11-17T03:31:21.971Z,98201.72
2022-11-17T03:33:51.582Z,98209.38
2022-11-17T03:36:25.558Z,98204.41
2022-11-17T03:39:00.141Z,98203.72
2022-11-17T03:41:35.012Z,98205.25
2022-11-17T03:44:06.294Z,98202.75
2022-11-17T03:46:39.691Z,98207.38
2022-11-17T03:49:17.926Z,98211.38
2022-11-17T03:51:46.709Z,98212.75
2022-11-17T03:54:16.951Z,98221.38
2022-11-17T03:56:55.562Z,98217.97
2022-11-17T03:59:30.733Z,98217.63
2022-11-17T04:02:00.472Z,98213.84
2022-11-17T04:04:49.235Z,98223.75
2022-11-17T04:07:17.448Z,98229.44
2022-11-17T04:09:45.671Z,98223.63
2022-11-17T04:12:32.179Z,98224.34
2022-11-17T04:15:17.996Z,98231.91
2022-11-17T04:17:48.283Z,98228.09
2022-11-17T04:20:17.081Z,98232.47
2022-11-17T04:22:46.236Z,98231.38
2022-11-17T04:25:35.937Z,98249.53
2022-11-17T04:28:22.708Z,98237.16
2022-11-17T04:30:51.034Z,98243.31
2022-11-17T04:33:20.587Z,98243.16
2022-11-17T04:35:51.480Z,98246.31
2022-11-17T04:38:20.292Z,98242.94
2022-11-17T04:41:02.289Z,98233.94
2022-11-17T04:43:30.556Z,98243.94
2022-11-17T04:46:00.335Z,98252.66
2022-11-17T04:48:30.480Z,98265.03
2022-11-17T04:50:58.785Z,98254.88
2022-11-17T04:53:26.920Z,98251.59
2022-11-17T04:55:55.124Z,98257.09
2022-11-17T04:58:23.295Z,98260.84
2022-11-17T05:00:51.729Z,98262.50
2022-11-17T05:03:21.609Z,98260.34
2022-11-17T05:05:51.324Z,98267.13
2022-11-17T05:08:19.530Z,98262.09
2022-11-17T05:11:06.043Z,98257.16
2022-11-17T05:13:34.585Z,98259.44
2022-11-17T05:16:20.664Z,98277.03
2022-11-17T05:18:48.862Z,98268.19
2022-11-17T05:21:18.441Z,98269.84
2022-11-17T05:23:55.012Z,98271.94
2022-11-17T05:26:25.017Z,98275.69
2022-11-17T05:28:53.976Z,98275.81
2022-11-17T05:31:22.380Z,98280.19
2022-11-17T05:33:50.554Z,98282.16
2022-11-17T05:36:20.967Z,98279.66
2022-11-17T05:38:50.611Z,98280.50
2022-11-17T05:41:19.425Z,98283.84
2022-11-17T05:43:47.856Z,98287.19
2022-11-17T05:46:16.425Z,98286.00
2022-11-17T05:48:45.228Z,98297.66
2022-11-17T05:51:15.172Z,98293.09
2022-11-17T05:53:45.104Z,98290.22
2022-11-17T05:56:35.408Z,98290.75
2022-11-17T05:59:13.301Z,98294.09
2022-11-17T06:01:45.086Z,98301.34
2022-11-17T06:04:17.229Z,98298.31
2022-11-17T06:06:46.277Z,98293.34
2022-11-17T06:09:17.050Z,98305.38
2022-11-17T06:11:45.320Z,98313.88
2022-11-17T06:14:15.153Z,98303.28
2022-11-17T06:16:47.437Z,98306.00
2022-11-17T06:19:20.660Z,98303.59
2022-11-17T06:22:10.984Z,98303.28
2022-11-17T06:24:40.637Z,98321.06
2022-11-17T06:27:09.109Z,98316.28
2022-11-17T06:29:43.656Z,98325.81
2022-11-17T06:32:13.341Z,98321.06
2022-11-17T06:34:41.806Z,98319.53
2022-11-17T06:37:11.350Z,98328.16
2022-11-17T06:39:41.245Z,98330.06
2022-11-17T06:42:09.704Z,98324.78
2022-11-17T06:44:37.939Z,98330.22
2022-11-17T06:47:12.504Z,98340.28
2022-11-17T06:49:41.009Z,98340.91
2022-11-17T06:52:11.176Z,98353.03
2022-11-17T06:54:40.880Z,98349.00
2022-11-17T06:57:09.412Z,98350.50
2022-11-17T06:59:40.758Z,98346.56
2022-11-17T07:02:09.216Z,98356.09
2022-11-17T07:04:37.974Z,98359.25
2022-11-17T07:07:06.386Z,98366.53
2022-11-17T07:09:34.610Z,98365.91
2022-11-17T07:12:04.205Z,98372.34
2022-11-17T07:14:33.553Z,98372.56
2022-11-17T07:17:01.680Z,98376.06
2022-11-17T07:19:29.886Z,98379.50
2022-11-17T07:21:58.104Z,98379.41
2022-11-17T07:24:26.358Z,98383.63
2022-11-17T07:26:54.587Z,98386.22
2022-11-17T07:29:24.118Z,98382.69
2022-11-17T07:31:52.334Z,98391.31
2022-11-17T07:34:20.557Z,98389.78
2022-11-17T07:36:48.711Z,98388.09
2022-11-17T07:39:21.423Z,98394.13
2022-11-17T07:41:50.135Z,98396.81
2022-11-17T07:44:18.277Z,98404.69
2022-11-17T07:46:47.844Z,98392.34
2022-11-17T07:49:16.416Z,98397.84
2022-11-17T07:51:44.600Z,98404.25
2022-11-17T07:54:13.172Z,98405.72
2022-11-17T07:56:41.327Z,98409.00
2022-11-17T07:59:11.308Z,98409.00
2022-11-17T08:01:39.974Z,98416.34
2022-11-17T08:04:11.742Z,98416.56
2022-11-17T08:06:39.947Z,98417.22
2022-11-17T08:09:10.818Z,98425.59
2022-11-17T08:11:39.235Z,98430.03
2022-11-17T08:14:08.033Z,98422.66
2022-11-17T08:16:36.167Z,98430.59
2022-11-17T08:19:06.301Z,98433.44
2022-11-17T08:21:37.734Z,98426.56
2022-11-17T08:24:07.155Z,98432.81
2022-11-17T08:26:35.294Z,98438.06
2022-11-17T08:29:03.498Z,98438.88
2022-11-17T08:31:31.767Z,98434.50
2022-11-17T08:34:00.283Z,98435.75
2022-11-17T08:36:28.396Z,98437.88
2022-11-17T08:38:58.274Z,98444.13
2022-11-17T08:41:26.715Z,98431.25
2022-11-17T08:43:55.260Z,98436.22
2022-11-17T08:46:23.526Z,98430.47
2022-11-17T08:48:56.811Z,98428.72
2022-11-17T08:51:25.497Z,98445.16
2022-11-17T08:53:55.096Z,98450.53
2022-11-17T08:56:25.474Z,98452.78
2022-11-17T08:58:53.745Z,98447.59
2022-11-17T09:01:21.972Z,98462.94
2022-11-17T09:03:50.615Z,98467.53
2022-11-17T09:06:20.141Z,98454.19
2022-11-17T09:08:48.802Z,98452.84
2022-11-17T09:11:17.244Z,98452.34
2022-11-17T09:13:47.254Z,98457.22
2022-11-17T09:16:17.080Z,98456.31
2022-11-17T09:18:46.174Z,98445.66
2022-11-17T09:21:17.163Z,98433.25
2022-11-17T09:23:46.429Z,98436.31
2022-11-17T09:26:16.238Z,98439.50
2022-11-17T09:28:46.862Z,98440.00
2022-11-17T09:31:18.878Z,98447.63
2022-11-17T09:33:47.919Z,98444.06
2022-11-17T09:36:17.250Z,98448.25
2022-11-17T09:38:47.073Z,98452.66
2022-11-17T09:41:27.696Z,98458.25
2022-11-17T09:44:04.134Z,98452.09
2022-11-17T09:46:45.790Z,98453.25
2022-11-17T09:49:29.298Z,98459.84
2022-11-17T09:52:01.689Z,98460.31
2022-11-17T09:54:34.179Z,98456.84
2022-11-17T09:57:03.129Z,98443.22
2022-11-17T09:59:34.064Z,98447.16
2022-11-17T10:02:02.422Z,98439.03
2022-11-17T10:04:31.209Z,98439.88
2022-11-17T10:07:00.054Z,98432.50
2022-11-17T10:09:37.809Z,98433.06
2022-11-17T10:12:16.535Z,98444.34
2022-11-17T10:14:48.593Z,98444.88
2022-11-17T10:17:17.151Z,98452.13
2022-11-17T10:19:46.354Z,98454.44
2022-11-17T10:22:21.567Z,98467.06
2022-11-17T10:24:52.270Z,98463.69
2022-11-17T10:27:24.088Z,98474.38
2022-11-17T10:30:04.613Z,98482.94
2022-11-17T10:32:36.244Z,98494.59
2022-11-17T10:35:25.743Z,98477.84
2022-11-17T10:37:58.718Z,98478.19
2022-11-17T10:40:28.289Z,98486.81
2022-11-17T10:43:04.064Z,98484.34
2022-11-17T10:45:34.620Z,98494.25
2022-11-17T10:48:21.581Z,98488.16
2022-11-17T10:50:56.808Z,98497.56
2022-11-17T10:53:38.257Z,98492.34
2022-11-17T10:56:15.831Z,98519.28
2022-11-17T10:59:13.814Z,98523.88
2022-11-17T11:01:45.227Z,98520.97
2022-11-17T11:04:30.613Z,98537.41
2022-11-17T11:07:10.370Z,98533.94
2022-11-17T11:09:44.016Z,98538.31
2022-11-17T11:12:16.169Z,98527.28
2022-11-17T11:14:50.055Z,98533.22
2022-11-17T11:17:20.764Z,98523.28
2022-11-17T11:19:54.176Z,98517.34
2022-11-17T11:22:32.841Z,98532.03
2022-11-17T11:25:11.987Z,98527.28
2022-11-17T11:27:57.408Z,98517.34
2022-11-17T11:30:26.255Z,98522.09
2022-11-17T11:33:13.717Z,98520.31
2022-11-17T11:36:02.175Z,98513.56
2022-11-17T11:38:51.275Z,98503.28
2022-11-17T11:41:35.699Z,98508.97
2022-11-17T11:44:22.206Z,98513.94
2022-11-17T11:46:57.057Z,98517.47
2022-11-17T11:49:35.442Z,98511.50
2022-11-17T11:52:07.309Z,98521.09
2022-11-17T11:54:46.310Z,98521.59
2022-11-17T11:57:25.570Z,98515.41
2022-11-17T12:00:03.556Z,98525.38
2022-11-17T12:02:48.898Z,98528.16
2022-11-17T12:05:27.699Z,98529.56
2022-11-17T12:08:10.370Z,98516.09
2022-11-17T12:10:44.171Z,98521.19
2022-11-17T12:13:15.777Z,98517.22
2022-11-17T12:15:44.308Z,98522.88
2022-11-17T12:18:15.656Z,98526.56
2022-11-17T12:21:07.160Z,98523.13
2022-11-17T12:23:49.320Z,98527.38
2022-11-17T12:26:26.631Z,98527.75
2022-11-17T12:29:28.081Z,98521.94
2022-11-17T12:31:58.052Z,98516.50
2022-11-17T12:34:29.122Z,98515.91
2022-11-17T12:37:32.780Z,98523.13
2022-11-17T12:40:06.428Z,98530.94
2022-11-17T12:42:36.032Z,98527.75
2022-11-17T12:45:13.299Z,98524.81
2022-11-17T12:47:48.109Z,98532.97
2022-11-17T12:50:51.193Z,98528.59
2022-11-17T12:53:38.260Z,98532.72
2022-11-17T12:56:29.158Z,98536.06
2022-11-17T12:59:09.072Z,98524.91
2022-11-17T13:01:45.284Z,98544.19
2022-11-17T13:04:17.780Z,98543.84
2022-11-17T13:07:02.881Z,98528.81
2022-11-17T13:09:35.357Z,98541.69
2022-11-17T13:12:04.361Z,98544.47
2022-11-17T13:14:33.928Z,98550.16
2022-11-17T13:17:03.561Z,98549.09
2022-11-17T13:19:37.879Z,98548.88
2022-11-17T13:22:07.810Z,98554.44
2022-11-17T13:24:40.656Z,98558.34
2022-11-17T13:27:21.633Z,98556.91
2022-11-17T13:29:50.316Z,98560.94
2022-11-17T13:32:21.483Z,98562.84
2022-11-17T13:34:52.714Z,98570.28
2022-11-17T13:37:22.902Z,98566.94
2022-11-17T13:40:22.149Z,98573.09
2022-11-17T13:42:51.445Z,98570.28
2022-11-17T13:45:19.688Z,98571.03
2022-11-17T13:47:49.306Z,98573.63
2022-11-17T13:50:39.606Z,98569.13
2022-11-17T13:53:24.619Z,98572.25
2022-11-17T13:55:54.727Z,98579.66
2022-11-17T13:58:29.832Z,98580.75
2022-11-17T14:01:00.203Z,98591.63
2022-11-17T14:03:37.862Z,98590.38
2022-11-17T14:06:08.526Z,98593.09
2022-11-17T14:08:39.344Z,98601.69
2022-11-17T14:11:22.836Z,98602.03
2022-11-17T14:13:54.108Z,98608.72
2022-11-17T14:16:28.404Z,98595.63
2022-11-17T14:19:02.296Z,98597.28
2022-11-17T14:21:31.453Z,98607.78
2022-11-17T14:24:08.487Z,98616.41
2022-11-17T14:26:44.561Z,98613.69
2022-11-17T14:29:13.720Z,98624.47
2022-11-17T14:31:42.280Z,98633.81
2022-11-17T14:34:10.580Z,98616.47
2022-11-17T14:36:40.508Z,98630.31
2022-11-17T14:39:15.675Z,98628.78
2022-11-17T14:41:47.093Z,98628.69
2022-11-17T14:44:15.356Z,98621.91
2022-11-17T14:46:44.234Z,98631.03
2022-11-17T14:49:13.128Z,98637.41
2022-11-17T14:51:41.982Z,98646.72
2022-11-17T14:54:10.322Z,98641.25
2022-11-17T14:56:38.661Z,98648.16
2022-11-17T14:59:12.291Z,98655.72
2022-11-17T15:01:42.775Z,98652.13
2022-11-17T15:04:48.361Z,98656.50
2022-11-17T15:07:04.270Z,98660.91
2022-11-17T15:09:32.846Z,98659.94
2022-11-17T15:12:01.277Z,98664.91
2022-11-17T15:14:31.237Z,98665.53
2022-11-17T15:16:59.562Z,98669.56
2022-11-17T15:19:27.715Z,98663.31
2022-11-17T15:21:56.019Z,98670.88
2022-11-17T15:24:24.619Z,98682.25
2022-11-17T15:26:52.845Z,98683.50
2022-11-17T15:29:21.432Z,98679.09
2022-11-17T15:31:51.107Z,98687.28
2022-11-17T15:34:20.624Z,98696.56
2022-11-17T15:36:49.100Z,98692.63
2022-11-17T15:39:18.474Z,98693.13
2022-11-17T15:41:47.130Z,98710.16
2022-11-17T15:44:15.834Z,98707.88
2022-11-17T15:46:47.345Z,98713.88
2022-11-17T15:49:18.236Z,98718.38
2022-11-17T15:51:46.737Z,98725.84
2022-11-17T15:54:20.329Z,98726.88
2022-11-17T15:56:49.571Z,98724.69
2022-11-17T15:59:18.080Z,98737.91
2022-11-17T16:01:46.984Z,98744.16
2022-11-17T16:04:17.532Z,98756.31
2022-11-17T16:06:47.197Z,98749.78
2022-11-17T16:09:17.463Z,98761.53
2022-11-17T16:11:46.237Z,98763.09
2022-11-17T16:14:16.005Z,98757.28
2022-11-17T16:16:46.851Z,98764.13
2022-11-17T16:19:15.658Z,98765.91
2022-11-17T16:21:46.099Z,98770.69
2022-11-17T16:24:16.137Z,98775.34
2022-11-17T16:26:45.659Z,98778.16
2022-11-17T16:29:14.232Z,98786.25
2022-11-17T16:31:44.457Z,98790.81
2022-11-17T16:34:16.529Z,98803.69
2022-11-17T16:36:46.836Z,98797.03
2022-11-17T16:39:18.090Z,98806.16
2022-11-17T16:41:47.522Z,98802.22
2022-11-17T16:44:19.482Z,98806.16
2022-11-17T16:46:49.895Z,98809.88
2022-11-17T16:49:20.100Z,98816.00
2022-11-17T16:51:52.641Z,98816.94
2022-11-17T16:54:22.493Z,98815.19
2022-11-17T16:56:50.932Z,98817.84
2022-11-17T16:59:19.695Z,98816.50
2022-11-17T17:01:48.056Z,98815.88
2022-11-17T17:04:17.333Z,98822.81
2022-11-17T17:06:46.037Z,98835.91
2022-11-17T17:09:17.963Z,98836.53
2022-11-17T17:11:48.030Z,98849.31
2022-11-17T17:14:17.217Z,98846.78
2022-11-17T17:16:45.721Z,98850.94
2022-11-17T17:19:16.054Z,98858.25
2022-11-17T17:21:45.708Z,98859.00
2022-11-17T17:24:15.665Z,98858.88
2022-11-17T17:26:44.275Z,98867.16
2022-11-17T17:29:13.903Z,98877.44
2022-11-17T17:31:43.586Z,98872.34
2022-11-17T17:34:14.090Z,98874.09
2022-11-17T17:36:42.349Z,98877.72
2022-11-17T17:39:16.913Z,98883.31
2022-11-17T17:41:46.228Z,98889.53
2022-11-17T17:44:16.722Z,98888.88
2022-11-17T17:46:45.179Z,98891.69
2022-11-17T17:49:14.312Z,98894.56
2022-11-17T17:51:44.527Z,98905.56
2022-11-17T17:54:18.620Z,98904.84
2022-11-17T17:56:47.544Z,98912.44
2022-11-17T17:59:17.252Z,98921.69
2022-11-17T18:01:47.852Z,98918.06
2022-11-17T18:04:18.070Z,98922.34
2022-11-17T18:06:48.135Z,98921.69
2022-11-17T18:09:20.757Z,98920.00
2022-11-17T18:11:51.143Z,98921.97
2022-11-17T18:14:24.541Z,98923.53
2022-11-17T18:16:53.639Z,98927.69
2022-11-17T18:19:26.946Z,98931.75
2022-11-17T18:21:58.166Z,98930.19
2022-11-17T18:24:28.438Z,98931.88
2022-11-17T18:26:56.941Z,98943.69
2022-11-17T18:29:25.319Z,98947.97
2022-11-17T18:31:53.514Z,98962.25
2022-11-17T18:34:23.373Z,98976.50
2022-11-17T18:36:55.667Z,98966.06
2022-11-17T18:39:24.660Z,98970.88
2022-11-17T18:41:56.358Z,98981.63
2022-11-17T18:44:25.843Z,98984.28
2022-11-17T18:46:58.246Z,98975.31
2022-11-17T18:49:29.619Z,98984.94
2022-11-17T18:51:57.906Z,98996.31
2022-11-17T18:54:26.177Z,98991.69
2022-11-17T18:56:56.342Z,99000.31
2022-11-17T18:59:24.599Z,99004.84
2022-11-17T19:01:52.899Z,99009.06
2022-11-17T19:04:22.307Z,99003.63
2022-11-17T19:06:51.056Z,99009.84
2022-11-17T19:09:20.882Z,99006.31
2022-11-17T19:11:49.764Z,99007.06
2022-11-17T19:14:19.935Z,99014.00
2022-11-17T19:16:50.450Z,99022.63
2022-11-17T19:19:19.533Z,99021.84
2022-11-17T19:21:48.110Z,99031.88
2022-11-17T19:24:17.191Z,99028.53
2022-11-17T19:26:46.069Z,99032.78
2022-11-17T19:29:17.487Z,99038.63
2022-11-17T19:31:49.709Z,99032.44
2022-11-17T19:34:18.283Z,99037.69
2022-11-17T19:36:46.607Z,99041.97
2022-11-17T19:39:15.618Z,99042.25
2022-11-17T19:41:45.096Z,99046.78
2022-11-17T19:44:13.800Z,99048.13
2022-11-17T19:46:43.351Z,99054.72
2022-11-17T19:49:14.138Z,99067.50
2022-11-17T19:51:43.016Z,99068.41
2022-11-17T19:54:13.409Z,99066.75
2022-11-17T19:56:42.255Z,99076.28
2022-11-17T19:59:15.609Z,99080.06
2022-11-17T20:01:45.350Z,99081.81
2022-11-17T20:04:16.367Z,99080.13
2022-11-17T20:06:44.641Z,99092.19
2022-11-17T20:09:15.231Z,99088.56
2022-11-17T20:11:44.577Z,99090.91
2022-11-17T20:14:14.489Z,99098.31
2022-11-17T20:16:42.735Z,99098.72
2022-11-17T20:19:12.201Z,99107.63
2022-11-17T20:21:41.737Z,99099.41
2022-11-17T20:24:10.302Z,99104.34
2022-11-17T20:26:40.917Z,99116.03
2022-11-17T20:29:09.295Z,99117.03
2022-11-17T20:31:38.107Z,99120.47
2022-11-17T20:34:06.859Z,99121.69
2022-11-17T20:36:35.999Z,99121.31
2022-11-17T20:39:07.567Z,99123.63
2022-11-17T20:41:35.998Z,99125.47
2022-11-17T20:44:04.949Z,99138.53
2022-11-17T20:46:33.201Z,99128.81
2022-11-17T20:49:01.244Z,99144.56
2022-11-17T20:51:29.338Z,99146.03
2022-11-17T20:53:57.549Z,99156.34
2022-11-17T20:56:27.500Z,99157.72
2022-11-17T20:58:56.067Z,99154.38
2022-11-17T21:01:24.476Z,99155.13
2022-11-17T21:03:53.194Z,99165.22
2022-11-17T21:06:23.448Z,99166.16
2022-11-17T21:08:51.759Z,99171.78
2022-11-17T21:11:35.519Z,99171.03
2022-11-17T21:14:06.153Z,99174.09
2022-11-17T21:16:35.024Z,99178.44
2022-11-17T21:19:04.215Z,99182.59
2022-11-17T21:21:32.450Z,99192.13
2022-11-17T21:24:00.772Z,99205.88
2022-11-17T21:26:29.649Z,99202.91
2022-11-17T21:29:03.205Z,99204.50
2022-11-17T21:31:36.319Z,99215.03
2022-11-17T21:34:07.233Z,99217.91
2022-11-17T21:36:36.912Z,99219.94
2022-11-17T21:39:05.824Z,99223.63
2022-11-17T21:41:36.285Z,99221.28
2022-11-17T21:44:07.079Z,99229.22
2022-11-17T21:46:37.215Z,99236.31
2022-11-17T21:49:05.552Z,99225.03
2022-11-17T21:51:38.841Z,99230.06
2022-11-17T21:54:09.846Z,99234.16
2022-11-17T21:56:38.572Z,99240.03
2022-11-17T21:59:10.696Z,99241.88
2022-11-17T22:01:40.967Z,99242.78
2022-11-17T22:04:09.294Z,99235.56
2022-11-17T22:06:39.578Z,99254.97
2022-11-17T22:09:08.163Z,99239.41
2022-11-17T22:11:37.306Z,99253.22
2022-11-17T22:14:08.999Z,99265.41
2022-11-17T22:16:39.658Z,99257.75
2022-11-17T22:19:09.143Z,99268.13
2022-11-17T22:21:38.306Z,99271.56
2022-11-17T22:24:08.272Z,99264.44
2022-11-17T22:26:38.378Z,99266.38
2022-11-17T22:29:08.245Z,99264.63
2022-11-17T22:31:36.734Z,99280.66
2022-11-17T22:34:06.614Z,99273.31
2022-11-17T22:36:35.390Z,99278.13
2022-11-17T22:39:04.060Z,99277.78
2022-11-17T22:41:32.516Z,99283.16
2022-11-17T22:44:00.724Z,99280.31
2022-11-17T22:46:29.939Z,99284.84
2022-11-17T22:48:58.271Z,99282.53
2022-11-17T22:51:45.700Z,99282.41
2022-11-17T22:54:14.193Z,99288.63
2022-11-17T22:56:42.399Z,99290.38
2022-11-17T22:59:11.215Z,99300.75
2022-11-17T23:01:39.959Z,99299.06
2022-11-17T23:04:08.848Z,99294.31
2022-11-17T23:06:38.731Z,99297.56
2022-11-17T23:09:07.118Z,99294.53
2022-11-17T23:11:37.994Z,99297.31
2022-11-17T23:14:07.944Z,99305.59
2022-11-17T23:16:36.827Z,99305.81
2022-11-17T23:19:07.296Z,99306.78
2022-11-17T23:21:35.885Z,99310.09
2022-11-17T23:24:05.910Z,99312.63
2022-11-17T23:26:35.891Z,99327.34
2022-11-17T23:29:04.097Z,99328.69
2022-11-17T23:31:32.286Z,99332.09
2022-11-17T23:34:00.590Z,99337.16
2022-11-17T23:36:28.886Z,99348.25
2022-11-17T23:38:57.662Z,99347.50
2022-11-17T23:41:27.425Z,99350.94
2022-11-17T23:43:56.211Z,99351.50
2022-11-17T23:46:26.412Z,99364.28
2022-11-17T23:48:56.321Z,99371.88
2022-11-17T23:51:25.939Z,99365.91
2022-11-17T23:53:54.947Z,99362.28
2022-11-17T23:56:23.718Z,99367.75
2022-11-17T23:58:54.018Z,99370.53
